Time;durP1;ratioP1;P1;durP2;ratioP2;P2;SDS_P1;SDS_P2;PMS_P1;PMS_P2;Temp;Humidity;BMP_temperature;BMP_pressure;BME280_temperature;BME280_humidity;BME280_pressure;Samples;Min_cycle;Max_cycle;Signal;HPM_P1;HPM_P2
2022/03/29 00:02:12;;;;;;;10.40;7.83;;;;;;;12.13;45.29;154475.97;5042199;28;20442;-76
2022/03/29 00:04:47;;;;;;;12.87;9.17;;;;;;;12.12;45.41;154473.41;5054218;28;20973;-76
2022/03/29 00:07:24;;;;;;;14.93;9.70;;;;;;;12.12;45.29;154473.41;5050511;28;20450;-76
2022/03/29 00:10:01;;;;;;;13.17;10.03;;;;;;;12.11;45.79;154470.81;5058625;28;20439;-75
2022/03/29 00:12:37;;;;;;;16.20;9.70;;;;;;;12.09;46.06;154465.63;5053938;28;20447;-76
2022/03/29 00:15:13;;;;;;;10.47;8.77;;;;;;;12.07;46.13;154459.16;5053167;28;20452;-76
2022/03/29 00:17:48;;;;;;;11.20;9.27;;;;;;;12.02;46.03;154447.44;5055648;28;20441;-76
2022/03/29 00:20:24;;;;;;;10.97;8.70;;;;;;;12.01;46.27;154443.59;5052901;28;20431;-75
2022/03/29 00:23:01;;;;;;;13.53;9.63;;;;;;;11.96;46.78;154431.94;5050808;28;20435;-76
2022/03/29 00:25:36;;;;;;;13.50;10.53;;;;;;;11.93;46.85;154424.16;5018543;28;20562;-76
2022/03/29 00:28:14;;;;;;;11.33;8.40;;;;;;;11.92;46.31;154421.53;5058340;28;20451;-76
2022/03/29 00:30:49;;;;;;;15.33;10.20;;;;;;;11.93;46.27;154424.16;5052474;28;20478;-76
2022/03/29 00:33:25;;;;;;;11.60;9.43;;;;;;;11.89;46.44;154413.75;5050445;28;20773;-75
2022/03/29 00:36:00;;;;;;;11.47;9.20;;;;;;;11.84;46.43;154400.78;5054044;28;20785;-76
2022/03/29 00:38:37;;;;;;;13.83;10.20;;;;;;;11.83;46.20;154398.22;5052065;28;20451;-75
2022/03/29 00:41:13;;;;;;;12.97;9.23;;;;;;;11.76;46.62;154380.06;5039648;28;20945;-76
2022/03/29 00:43:49;;;;;;;14.57;9.90;;;;;;;11.72;46.79;154369.72;5048878;28;20842;-76
2022/03/29 00:46:24;;;;;;;15.50;11.30;;;;;;;11.68;47.18;154357.97;5033597;28;20988;-75
2022/03/29 00:49:00;;;;;;;13.37;9.67;;;;;;;11.65;46.95;154350.22;5033055;28;20427;-76
2022/03/29 00:51:36;;;;;;;10.10;8.90;;;;;;;11.65;46.74;154351.50;5059471;28;20463;-76
2022/03/29 00:54:14;;;;;;;13.67;10.70;;;;;;;11.62;47.04;154343.75;5049764;28;20945;-75
2022/03/29 00:56:50;;;;;;;13.10;11.63;;;;;;;11.59;46.71;154335.97;5033517;28;20915;-76
2022/03/29 00:59:26;;;;;;;16.27;10.70;;;;;;;11.59;46.86;154335.97;5033119;28;20491;-76
2022/03/29 01:02:02;;;;;;;11.13;9.60;;;;;;;11.55;47.06;154326.88;5034630;28;20961;-76
2022/03/29 01:04:38;;;;;;;14.67;10.37;;;;;;;11.56;46.58;154329.50;5033485;28;20451;-76
2022/03/29 01:07:14;;;;;;;12.33;9.73;;;;;;;11.53;46.74;154321.72;5033080;28;20446;-75
2022/03/29 01:09:51;;;;;;;10.37;8.70;;;;;;;11.49;46.93;154310.06;5035088;28;20490;-76
2022/03/29 01:12:28;;;;;;;12.00;10.33;;;;;;;11.54;47.01;154324.28;5018190;28;20457;-76
2022/03/29 01:15:07;;;;;;;13.30;10.00;;;;;;;11.54;46.63;154323.03;5049647;28;20435;-76
2022/03/29 01:17:43;;;;;;;11.70;9.87;;;;;;;11.56;46.88;154329.50;5050129;28;20439;-76
2022/03/29 01:20:20;;;;;;;14.20;10.20;;;;;;;11.56;46.93;154328.19;5048956;28;20431;-76
2022/03/29 01:22:58;;;;;;;10.50;9.10;;;;;;;11.52;46.84;154317.81;5038522;28;20451;-76
2022/03/29 01:25:35;;;;;;;14.80;10.33;;;;;;;11.50;46.64;154313.94;5034217;28;20934;-75
2022/03/29 01:28:11;;;;;;;13.70;9.90;;;;;;;11.45;47.02;154300.97;5032841;28;20478;-76
2022/03/29 01:30:46;;;;;;;11.23;9.27;;;;;;;11.39;46.99;154284.13;5052119;28;20474;-76
2022/03/29 01:33:22;;;;;;;12.30;9.27;;;;;;;11.44;46.86;154297.06;5053070;28;20905;-75
2022/03/29 01:35:59;;;;;;;11.67;8.90;;;;;;;11.44;46.86;154297.06;5037435;28;20427;-76
2022/03/29 01:38:35;;;;;;;10.90;9.40;;;;;;;11.43;46.58;154294.50;5026781;28;20471;-75
2022/03/29 01:41:11;;;;;;;13.80;9.70;;;;;;;11.39;46.98;154284.13;5053939;28;20439;-75
2022/03/29 01:43:47;;;;;;;11.73;8.83;;;;;;;11.32;47.20;154266.00;5069313;28;20443;-76
2022/03/29 01:46:22;;;;;;;15.37;8.60;;;;;;;11.25;47.09;154247.88;5049368;28;20460;-76
2022/03/29 01:48:59;;;;;;;12.23;10.27;;;;;;;11.21;47.50;154238.78;5051108;28;20482;-76
2022/03/29 01:51:34;;;;;;;10.57;8.67;;;;;;;11.18;47.70;154229.72;5032522;28;20440;-75
2022/03/29 01:54:11;;;;;;;13.43;10.70;;;;;;;11.19;47.30;154232.31;5017052;28;20768;-75
2022/03/29 01:56:47;;;;;;;11.20;9.30;;;;;;;11.18;48.00;154231.00;5032581;28;20447;-77
2022/03/29 01:59:22;;;;;;;14.43;11.63;;;;;;;11.16;47.87;154224.53;5032165;28;20440;-75
2022/03/29 02:01:58;;;;;;;13.00;9.40;;;;;;;11.11;47.51;154212.88;5048741;28;20444;-76
2022/03/29 02:04:34;;;;;;;11.57;9.23;;;;;;;11.09;47.91;154207.72;5031981;28;20439;-76
2022/03/29 02:07:09;;;;;;;12.50;9.50;;;;;;;10.99;48.49;154181.78;5036665;28;20796;-76
2022/03/29 02:09:46;;;;;;;14.03;10.90;;;;;;;10.97;48.67;154176.59;5048909;28;20458;-76
2022/03/29 02:12:21;;;;;;;16.53;11.30;;;;;;;10.94;48.63;154170.13;5035417;28;20435;-75
2022/03/29 02:14:57;;;;;;;16.83;11.40;;;;;;;10.98;48.18;154180.53;5031918;28;20472;-75
2022/03/29 02:17:33;;;;;;;12.37;10.23;;;;;;;11.04;47.99;154193.47;5038511;28;20455;-76
2022/03/29 02:20:09;;;;;;;13.90;9.90;;;;;;;11.01;47.83;154188.25;5051466;28;20787;-76
2022/03/29 02:22:45;;;;;;;12.77;10.37;;;;;;;11.07;48.03;154202.50;5052038;28;20434;-75
2022/03/29 02:25:22;;;;;;;12.43;9.90;;;;;;;11.07;47.59;154201.25;5036007;28;20796;-75
2022/03/29 02:27:58;;;;;;;13.03;10.57;;;;;;;11.06;48.06;154199.94;5036615;28;20459;-75
2022/03/29 02:30:34;;;;;;;13.67;11.30;;;;;;;11.02;47.64;154190.84;5032408;28;20450;-75
2022/03/29 02:33:09;;;;;;;12.87;10.03;;;;;;;11.04;47.52;154193.47;5016878;28;20534;-76
2022/03/29 02:35:45;;;;;;;12.93;9.83;;;;;;;11.02;47.39;154189.56;5041906;28;20442;-75
2022/03/29 02:38:20;;;;;;;14.67;10.07;;;;;;;11.00;47.87;154184.38;5027716;28;20446;-76
2022/03/29 02:40:58;;;;;;;12.70;9.70;;;;;;;10.96;47.77;154174.06;5036171;28;20438;-76
2022/03/29 02:43:34;;;;;;;14.23;10.23;;;;;;;10.93;47.48;154167.53;5036694;28;20474;-76
2022/03/29 02:46:09;;;;;;;14.20;10.37;;;;;;;10.89;47.55;154155.88;5047823;28;20460;-76
2022/03/29 02:48:45;;;;;;;15.27;10.63;;;;;;;10.81;48.00;154136.47;5016515;28;20443;-76
2022/03/29 02:51:21;;;;;;;13.33;11.27;;;;;;;10.77;48.04;154126.13;5031354;28;20523;-75
2022/03/29 02:53:56;;;;;;;13.70;10.43;;;;;;;10.73;48.23;154115.75;5031847;28;20810;-75
2022/03/29 02:56:33;;;;;;;12.90;9.77;;;;;;;10.70;47.92;154106.66;5030691;28;21044;-76
2022/03/29 02:59:09;;;;;;;13.77;10.70;;;;;;;10.72;47.86;154111.88;5032871;28;20471;-75
2022/03/29 03:01:44;;;;;;;11.63;9.90;;;;;;;10.70;48.50;154106.66;5033569;28;20463;-75
2022/03/29 03:04:20;;;;;;;11.47;10.07;;;;;;;10.67;48.44;154100.19;5053116;28;20446;-75
2022/03/29 03:06:56;;;;;;;14.93;9.50;;;;;;;10.64;48.51;154092.47;5052870;28;20478;-76
2022/03/29 03:09:31;;;;;;;13.03;9.93;;;;;;;10.55;48.90;154069.13;5054779;28;20442;-75
2022/03/29 03:12:09;;;;;;;13.13;9.20;;;;;;;10.53;49.05;154063.97;5039983;28;20500;-76
2022/03/29 03:14:45;;;;;;;14.63;9.97;;;;;;;10.53;48.82;154063.97;5071927;28;20918;-75
2022/03/29 03:17:20;;;;;;;16.80;11.60;;;;;;;10.51;48.96;154058.75;5053893;28;20450;-75
2022/03/29 03:19:56;;;;;;;14.80;11.03;;;;;;;10.51;48.93;154058.75;5055257;28;20484;-75
2022/03/29 03:22:31;;;;;;;17.80;9.87;;;;;;;10.50;48.73;154056.19;5036475;28;20451;-75
2022/03/29 03:25:08;;;;;;;14.67;10.60;;;;;;;10.44;49.06;154040.63;5034687;28;20901;-75
2022/03/29 03:27:45;;;;;;;13.13;11.20;;;;;;;10.48;49.00;154051.03;5035416;28;20996;-75
2022/03/29 03:30:21;;;;;;;12.30;10.30;;;;;;;10.48;49.15;154051.03;5034620;28;20440;-75
2022/03/29 03:32:56;;;;;;;13.20;10.30;;;;;;;10.46;48.95;154044.56;5019696;28;20508;-75
2022/03/29 03:35:33;;;;;;;13.53;9.93;;;;;;;10.48;48.97;154049.72;5063369;28;20494;-75
2022/03/29 03:38:09;;;;;;;18.17;11.03;;;;;;;10.47;48.69;154048.41;5055678;28;20474;-76
2022/03/29 03:40:44;;;;;;;12.33;9.90;;;;;;;10.49;48.78;154053.59;5056017;28;20414;-76
2022/03/29 03:43:21;;;;;;;16.87;11.30;;;;;;;10.51;48.92;154058.75;5053970;28;21002;-77
2022/03/29 03:45:56;;;;;;;11.43;9.60;;;;;;;10.48;48.70;154051.03;5054412;28;20825;-77
2022/03/29 03:48:31;;;;;;;15.30;10.77;;;;;;;10.46;48.64;154045.81;5036128;28;20455;-76
2022/03/29 03:51:07;;;;;;;12.80;9.97;;;;;;;10.44;49.04;154040.63;5035863;28;20412;-77
2022/03/29 03:53:44;;;;;;;11.80;9.63;;;;;;;10.42;48.82;154034.16;5039625;28;20451;-77
2022/03/29 03:56:20;;;;;;;12.73;10.50;;;;;;;10.39;48.94;154029.00;5053487;28;20431;-77
2022/03/29 03:58:57;;;;;;;14.50;10.10;;;;;;;10.33;49.31;154013.47;5054455;28;20479;-77
2022/03/29 04:01:32;;;;;;;15.50;10.70;;;;;;;10.32;49.07;154009.59;5054243;28;20446;-77
2022/03/29 04:04:07;;;;;;;12.40;9.30;;;;;;;10.30;49.19;154004.38;5034916;28;20795;-77
2022/03/29 04:06:43;;;;;;;12.10;10.50;;;;;;;10.27;49.22;153996.66;5034138;28;20459;-76
2022/03/29 04:09:19;;;;;;;15.37;10.30;;;;;;;10.22;49.53;153984.97;5037837;28;20431;-77
2022/03/29 04:11:54;;;;;;;11.20;9.27;;;;;;;10.13;50.14;153960.41;5034043;28;20453;-77
2022/03/29 04:14:31;;;;;;;11.53;9.90;;;;;;;10.05;52.02;153939.63;5053155;28;20797;-77
2022/03/29 04:17:08;;;;;;;11.80;10.03;;;;;;;9.59;53.89;153823.16;5038582;28;20430;-76
2022/03/29 04:19:43;;;;;;;15.37;11.00;;;;;;;9.37;54.13;153764.97;5054384;28;20515;-76
2022/03/29 04:22:19;;;;;;;13.13;10.60;;;;;;;9.33;53.95;153755.91;5041473;28;20555;-77
2022/03/29 04:24:54;;;;;;;13.90;10.60;;;;;;;9.34;53.98;153758.50;5035459;28;20412;-77
2022/03/29 04:27:30;;;;;;;15.33;10.80;;;;;;;9.35;53.84;153761.06;5033952;28;20472;-76
2022/03/29 04:30:09;;;;;;;12.03;10.33;;;;;;;9.36;53.84;153763.66;5050950;28;20516;-76
2022/03/29 04:32:45;;;;;;;17.37;11.10;;;;;;;9.33;54.57;153754.59;5044859;28;20516;-76
2022/03/29 04:35:20;;;;;;;13.77;10.57;;;;;;;9.32;54.62;153753.31;5054083;28;20441;-77
2022/03/29 04:37:56;;;;;;;13.07;10.00;;;;;;;9.27;54.26;153739.06;5054070;28;20445;-77
2022/03/29 04:40:32;;;;;;;13.03;8.83;;;;;;;9.28;53.95;153741.69;5048952;28;20489;-77
2022/03/29 04:43:07;;;;;;;12.80;10.00;;;;;;;9.28;54.09;153742.97;5054616;28;20423;-77
2022/03/29 04:45:44;;;;;;;12.03;9.77;;;;;;;9.30;53.73;153748.13;5052674;28;20466;-77
2022/03/29 04:48:19;;;;;;;17.60;11.73;;;;;;;9.35;53.79;153761.06;5045235;28;20436;-76
2022/03/29 04:50:55;;;;;;;13.77;9.87;;;;;;;9.38;53.46;153767.53;5049665;28;20447;-77
2022/03/29 04:53:30;;;;;;;15.97;10.97;;;;;;;9.36;53.36;153763.66;5049858;28;20786;-75
2022/03/29 04:56:06;;;;;;;12.70;10.03;;;;;;;9.38;53.60;153767.53;5039984;28;20438;-76
2022/03/29 04:58:42;;;;;;;12.73;9.67;;;;;;;9.35;53.55;153761.06;5046468;28;20525;-76
2022/03/29 05:01:18;;;;;;;13.73;9.73;;;;;;;9.36;53.63;153763.66;5031712;28;20455;-76
2022/03/29 05:03:54;;;;;;;17.17;11.60;;;;;;;9.36;53.71;153762.38;5039311;28;20439;-76
2022/03/29 05:06:30;;;;;;;11.73;10.33;;;;;;;9.35;54.41;153761.06;5033055;28;20507;-76
2022/03/29 05:09:08;;;;;;;16.77;11.60;;;;;;;9.34;54.45;153757.22;5017788;28;20447;-76
2022/03/29 05:11:44;;;;;;;15.40;11.83;;;;;;;9.31;54.96;153750.75;5050644;28;20451;-76
2022/03/29 05:14:19;;;;;;;12.57;10.03;;;;;;;9.27;54.90;153740.38;5019606;28;20431;-76
2022/03/29 05:16:57;;;;;;;13.23;10.13;;;;;;;9.25;55.10;153733.91;5034704;28;20439;-76
2022/03/29 05:19:32;;;;;;;15.03;10.00;;;;;;;9.23;54.67;153730.03;5032379;28;20509;-76
2022/03/29 05:22:08;;;;;;;19.77;10.47;;;;;;;9.25;54.67;153735.22;5051047;28;20470;-76
2022/03/29 05:24:43;;;;;;;14.73;11.13;;;;;;;9.32;54.30;153753.31;5016726;28;20845;-76
2022/03/29 05:27:19;;;;;;;15.97;10.23;;;;;;;9.34;54.12;153758.50;5049101;28;20475;-76
2022/03/29 05:29:54;;;;;;;11.27;9.53;;;;;;;9.36;54.09;153763.66;5018241;28;20459;-76
2022/03/29 05:32:31;;;;;;;11.57;9.50;;;;;;;9.35;53.99;153761.06;5049882;28;20462;-76
2022/03/29 05:35:08;;;;;;;13.67;10.00;;;;;;;9.34;53.80;153758.50;5032568;28;20448;-76
2022/03/29 05:37:46;;;;;;;13.33;10.00;;;;;;;9.38;54.19;153768.84;5032161;28;20431;-76
2022/03/29 05:40:25;;;;;;;12.77;10.30;;;;;;;9.38;54.19;153767.53;5037755;28;20538;-76
2022/03/29 05:43:01;;;;;;;11.90;10.23;;;;;;;9.38;54.19;153767.53;5018184;28;20451;-77
2022/03/29 05:45:37;;;;;;;12.07;10.30;;;;;;;9.44;54.12;153783.06;5031949;28;20455;-76
2022/03/29 05:51:07;;;;;;;14.47;10.80;;;;;;;9.49;54.49;153796.00;5028582;28;20917;-76
2022/03/29 05:53:42;;;;;;;13.10;10.27;;;;;;;9.51;54.62;153802.47;5029077;28;20821;-76
2022/03/29 05:56:18;;;;;;;14.40;10.90;;;;;;;9.56;54.41;153815.41;5017467;28;20455;-76
2022/03/29 05:58:54;;;;;;;12.67;11.00;;;;;;;9.57;54.74;153818.00;5046085;28;20473;-76
2022/03/29 06:01:30;;;;;;;12.93;10.10;;;;;;;9.64;54.61;153836.09;5049032;28;20445;-76
2022/03/29 06:04:08;;;;;;;13.43;10.20;;;;;;;9.72;54.28;153856.81;5035208;28;20475;-76
2022/03/29 06:06:45;;;;;;;14.70;9.90;;;;;;;9.77;54.27;153869.75;5030405;28;20466;-76
2022/03/29 06:09:21;;;;;;;17.80;11.60;;;;;;;9.85;54.59;153887.88;5047740;28;20451;-76
2022/03/29 06:11:56;;;;;;;18.53;13.00;;;;;;;9.92;54.27;153906.00;5032907;28;20440;-76
2022/03/29 06:14:32;;;;;;;17.93;11.17;;;;;;;9.95;54.18;153913.75;5042206;28;20451;-76
2022/03/29 06:17:07;;;;;;;14.63;11.20;;;;;;;9.97;54.24;153920.22;5047635;28;20937;-76
2022/03/29 06:19:45;;;;;;;17.83;10.57;;;;;;;10.03;54.21;153934.47;5049830;28;20443;-76
2022/03/29 06:22:20;;;;;;;14.77;10.90;;;;;;;10.09;53.95;153951.25;5046587;28;20459;-76
2022/03/29 06:24:55;;;;;;;18.27;11.73;;;;;;;10.16;53.73;153969.47;5047742;28;20814;-76
2022/03/29 06:27:31;;;;;;;16.13;10.57;;;;;;;10.22;53.96;153984.97;5040891;28;20475;-76
2022/03/29 06:30:08;;;;;;;14.00;11.57;;;;;;;10.24;53.75;153988.88;5035168;28;20454;-76
2022/03/29 06:32:48;;;;;;;13.97;11.80;;;;;;;10.29;53.43;154001.81;5045491;28;20442;-76
2022/03/29 06:35:27;;;;;;;14.60;11.83;;;;;;;10.39;53.21;154027.69;5018346;28;20447;-76
2022/03/29 06:38:02;;;;;;;14.97;10.30;;;;;;;10.49;53.33;154053.59;5063990;28;20458;-76
2022/03/29 06:40:38;;;;;;;19.97;11.67;;;;;;;10.56;53.02;154071.75;5049570;28;20464;-76
2022/03/29 06:43:13;;;;;;;15.67;10.50;;;;;;;10.65;53.12;154095.03;5017492;28;20906;-76
2022/03/29 06:45:49;;;;;;;14.93;9.80;;;;;;;10.75;52.97;154120.91;5032846;28;20451;-76
2022/03/29 06:48:25;;;;;;;16.20;10.77;;;;;;;10.85;52.42;154146.84;5067964;28;20915;-76
2022/03/29 06:51:02;;;;;;;18.60;10.90;;;;;;;10.90;52.53;154159.78;5047399;28;20458;-76
2022/03/29 06:53:38;;;;;;;13.83;10.30;;;;;;;10.97;51.91;154176.59;5039758;28;20448;-77
2022/03/29 06:56:15;;;;;;;13.60;10.50;;;;;;;11.05;51.65;154196.03;5023416;28;20443;-75
2022/03/29 06:58:51;;;;;;;15.47;11.43;;;;;;;11.12;51.78;154214.19;5037966;28;20466;-76
2022/03/29 07:01:26;;;;;;;13.93;10.37;;;;;;;11.16;51.65;154224.53;5048176;28;20434;-76
2022/03/29 07:04:03;;;;;;;17.90;12.60;;;;;;;11.25;51.71;154247.88;5030203;28;20797;-76
2022/03/29 07:06:40;;;;;;;15.60;10.17;;;;;;;11.28;51.75;154256.91;5040180;28;20538;-76
2022/03/29 07:12:14;;;;;;;14.87;11.10;;;;;;;11.50;50.93;154312.63;5050345;28;20483;-76
2022/03/29 07:14:50;;;;;;;13.53;11.57;;;;;;;11.56;51.03;154329.50;5048697;28;20462;-76
2022/03/29 07:17:26;;;;;;;15.75;13.10;;;;;;;11.60;50.64;154339.84;5050462;28;20443;-76
2022/03/29 07:20:01;;;;;;;16.40;12.57;;;;;;;11.64;50.80;154348.94;5060169;28;20305;-76
2022/03/29 07:22:39;;;;;;;15.27;12.33;;;;;;;11.63;51.13;154347.63;5070311;28;20434;-76
2022/03/29 07:25:16;;;;;;;18.90;12.30;;;;;;;11.76;51.11;154380.06;5044398;28;20455;-76
2022/03/29 07:27:53;;;;;;;15.07;10.90;;;;;;;11.83;51.13;154396.94;5022224;28;20460;-76
2022/03/29 07:30:29;;;;;;;13.27;10.17;;;;;;;11.91;50.93;154418.97;5046380;28;20504;-76
2022/03/29 07:33:06;;;;;;;17.03;12.67;;;;;;;12.01;50.65;154444.91;5038904;28;20447;-76
2022/03/29 07:35:41;;;;;;;17.87;11.77;;;;;;;12.12;50.52;154473.41;5046742;28;20538;-76
2022/03/29 07:38:18;;;;;;;16.43;12.70;;;;;;;12.26;50.60;154507.13;5030667;28;20416;-76
2022/03/29 07:40:54;;;;;;;16.00;11.30;;;;;;;12.37;50.12;154535.59;5045614;28;20447;-76
2022/03/29 07:43:31;;;;;;;17.27;11.40;;;;;;;12.47;50.24;154562.84;5020304;28;20447;-76
2022/03/29 07:46:06;;;;;;;18.37;11.43;;;;;;;12.56;50.12;154586.19;5049265;28;20447;-76
2022/03/29 07:48:42;;;;;;;18.17;12.33;;;;;;;12.61;49.71;154597.84;5032128;28;20470;-76
2022/03/29 07:51:17;;;;;;;19.53;13.43;;;;;;;12.72;49.57;154627.72;5040410;28;20508;-76
2022/03/29 07:53:54;;;;;;;20.63;11.40;;;;;;;12.84;50.07;154657.50;5045078;28;20462;-76
2022/03/29 07:56:30;;;;;;;16.57;11.53;;;;;;;12.96;50.14;154687.34;5032459;28;20451;-76
2022/03/29 07:59:06;;;;;;;24.80;11.60;;;;;;;13.23;51.33;154758.78;5020907;28;20993;-76
2022/03/29 08:01:41;;;;;;;13.83;12.33;;;;;;;13.23;51.32;154758.78;5042307;28;20497;-76
2022/03/29 08:04:17;;;;;;;21.53;11.70;;;;;;;13.15;50.09;154736.72;5032822;28;20490;-76
2022/03/29 08:06:52;;;;;;;12.97;11.47;;;;;;;13.28;50.67;154771.75;5053589;28;20771;-75
2022/03/29 08:09:29;;;;;;;18.20;13.97;;;;;;;13.46;48.98;154817.16;5049000;28;20482;-76
2022/03/29 08:12:05;;;;;;;16.40;13.30;;;;;;;13.48;49.29;154821.03;5053232;28;20431;-76
2022/03/29 08:14:44;;;;;;;13.83;12.43;;;;;;;13.39;50.00;154800.31;5051596;28;20532;-75
2022/03/29 08:17:20;;;;;;;15.03;12.10;;;;;;;13.59;49.90;154849.59;5033875;28;20479;-76
2022/03/29 08:19:56;;;;;;;14.93;12.80;;;;;;;14.05;48.16;154969.03;5051216;28;20960;-76
2022/03/29 08:22:32;;;;;;;15.97;12.33;;;;;;;14.15;47.01;154995.00;5032404;28;20451;-76
2022/03/29 08:25:09;;;;;;;18.40;12.50;;;;;;;14.04;47.62;154966.41;5033523;28;20455;-76
2022/03/29 08:27:46;;;;;;;17.33;12.33;;;;;;;13.98;48.94;154952.13;5029829;28;20546;-76
2022/03/29 08:30:22;;;;;;;19.77;12.40;;;;;;;13.99;49.09;154953.44;5034032;28;20467;-76
2022/03/29 08:32:58;;;;;;;21.13;12.83;;;;;;;13.95;48.79;154943.09;5041487;28;20479;-76
2022/03/29 08:35:34;;;;;;;21.43;12.93;;;;;;;13.90;49.00;154931.38;5056064;28;20487;-76
2022/03/29 08:38:10;;;;;;;25.43;14.30;;;;;;;14.02;48.33;154961.25;5017273;28;20938;-76
2022/03/29 08:40:47;;;;;;;19.23;13.93;;;;;;;13.99;48.08;154953.44;5052437;28;20454;-76
2022/03/29 08:43:26;;;;;;;16.90;12.27;;;;;;;13.98;48.38;154950.81;5042631;28;20463;-76
2022/03/29 08:46:02;;;;;;;17.00;13.10;;;;;;;14.03;48.38;154965.13;5034085;28;20466;-76
2022/03/29 08:48:37;;;;;;;19.50;13.47;;;;;;;14.05;48.54;154969.03;5047891;28;20814;-76
2022/03/29 08:51:14;;;;;;;15.77;13.07;;;;;;;14.12;48.77;154987.19;5048224;28;20838;-76
2022/03/29 08:53:49;;;;;;;20.47;14.37;;;;;;;14.10;49.19;154980.72;5053618;28;20473;-76
2022/03/29 08:56:26;;;;;;;17.33;13.17;;;;;;;14.15;49.23;154993.69;5033057;28;20450;-76
2022/03/29 08:59:02;;;;;;;23.10;13.67;;;;;;;14.15;48.82;154995.00;5062298;28;20475;-76
2022/03/29 09:01:38;;;;;;;19.10;14.47;;;;;;;14.09;49.18;154979.41;5045482;28;21023;-76
2022/03/29 09:04:15;;;;;;;24.00;13.50;;;;;;;14.04;49.31;154967.72;5052594;28;20496;-76
2022/03/29 09:06:56;;;;;;;17.10;14.30;;;;;;;14.02;49.06;154961.25;5033628;28;20543;-76
2022/03/29 09:09:33;;;;;;;19.97;13.80;;;;;;;14.11;48.96;154983.31;5059221;28;20825;-76
2022/03/29 09:12:15;;;;;;;22.23;13.40;;;;;;;14.26;49.17;155022.25;5043774;28;20447;-76
2022/03/29 09:14:54;;;;;;;18.03;14.50;;;;;;;14.49;48.79;155083.34;5054157;28;20439;-76
2022/03/29 09:17:31;;;;;;;23.47;15.07;;;;;;;14.57;48.20;155102.81;5065477;28;20798;-76
2022/03/29 09:20:10;;;;;;;15.30;13.13;;;;;;;14.60;48.00;155111.94;5052598;28;20999;-76
2022/03/29 09:22:47;;;;;;;17.80;13.47;;;;;;;14.75;48.38;155149.56;5045393;28;20454;-76
2022/03/29 09:25:24;;;;;;;16.00;14.30;;;;;;;14.54;48.80;155095.03;5051988;28;20454;-76
2022/03/29 09:28:03;;;;;;;20.03;13.17;;;;;;;14.79;48.84;155160.00;5036730;28;20478;-76
2022/03/29 09:30:40;;;;;;;19.07;14.67;;;;;;;14.83;48.14;155169.06;5051231;28;20454;-76
2022/03/29 09:33:17;;;;;;;16.53;13.17;;;;;;;14.78;47.84;155156.06;5064081;28;20456;-76
2022/03/29 09:35:57;;;;;;;16.97;13.60;;;;;;;14.69;47.46;155134.03;5054727;28;20456;-76
2022/03/29 09:38:36;;;;;;;17.50;13.37;;;;;;;14.86;47.48;155178.16;5031374;28;20511;-76
2022/03/29 09:41:21;;;;;;;19.07;14.00;;;;;;;14.97;47.55;155205.44;5035053;28;20451;-76
2022/03/29 09:44:03;;;;;;;20.00;14.37;;;;;;;15.38;47.84;155311.97;5048694;28;20440;-76
2022/03/29 09:46:55;;;;;;;20.23;15.27;;;;;;;15.40;46.94;155315.91;5048748;28;20444;-76
2022/03/29 09:49:31;;;;;;;17.50;14.10;;;;;;;15.22;47.36;155270.44;5031065;28;20581;-76
2022/03/29 09:52:13;;;;;;;28.30;16.97;;;;;;;15.19;46.86;155262.63;5038976;28;20443;-76
2022/03/29 09:55:16;;;;;;;20.73;14.00;;;;;;;15.02;47.17;155218.44;5031272;28;20935;-76
2022/03/29 09:57:53;;;;;;;24.77;22.07;;;;;;;15.06;47.65;155228.84;5044004;28;20569;-76
2022/03/29 10:00:38;;;;;;;22.50;15.83;;;;;;;15.21;47.55;155267.81;5050363;28;20545;-76
2022/03/29 10:03:15;;;;;;;19.10;15.30;;;;;;;15.19;47.11;155262.63;5050664;28;20462;-76
2022/03/29 10:05:52;;;;;;;22.10;14.03;;;;;;;15.26;47.23;155280.81;5031071;28;20549;-76
2022/03/29 10:11:23;;;;;;;16.60;14.20;;;;;;;15.49;46.89;155340.63;5031047;28;20541;-76
2022/03/29 10:13:59;;;;;;;18.13;14.97;;;;;;;15.36;46.68;155305.47;5039667;28;20818;-76
2022/03/29 10:16:36;;;;;;;19.00;14.80;;;;;;;15.25;46.79;155279.50;5038420;28;20961;-76
2022/03/29 10:19:12;;;;;;;21.07;14.83;;;;;;;15.18;46.86;155261.31;5044667;28;20820;-76
2022/03/29 10:21:47;;;;;;;24.83;15.67;;;;;;;15.04;46.97;155224.94;5065617;28;20450;-76
2022/03/29 10:24:23;;;;;;;22.90;15.83;;;;;;;15.08;46.97;155235.34;5049745;28;20482;-76
2022/03/29 10:27:00;;;;;;;19.13;15.07;;;;;;;15.11;47.00;155241.84;5048848;28;20474;-76
2022/03/29 10:29:38;;;;;;;18.93;13.97;;;;;;;15.19;46.65;155262.63;5034407;28;20513;-76
2022/03/29 10:32:28;;;;;;;19.10;14.10;;;;;;;15.31;45.67;155292.50;5060083;28;20970;-76
2022/03/29 10:35:07;;;;;;;19.50;15.30;;;;;;;15.33;45.53;155298.97;5041888;28;20487;-76
2022/03/29 10:37:54;;;;;;;18.30;14.47;;;;;;;15.33;45.76;155297.72;5061837;28;20526;-76
2022/03/29 10:40:41;;;;;;;18.23;14.57;;;;;;;15.32;45.88;155295.09;5046737;28;20573;-76
2022/03/29 10:43:28;;;;;;;25.63;16.13;;;;;;;15.26;46.22;155280.81;5041026;28;20451;-76
2022/03/29 10:46:22;;;;;;;20.37;15.33;;;;;;;15.27;45.63;155283.44;5030950;28;20440;-76
2022/03/29 10:49:20;;;;;;;23.90;16.77;;;;;;;15.29;46.24;155287.31;5037001;28;20812;-76
2022/03/29 10:51:57;;;;;;;19.23;14.93;;;;;;;15.43;45.43;155323.72;5031480;28;20533;-76
2022/03/29 10:54:36;;;;;;;18.23;15.77;;;;;;;15.33;45.55;155298.97;5051666;28;20449;-76
2022/03/29 10:57:20;;;;;;;19.13;14.97;;;;;;;15.38;45.67;155311.97;5048260;28;20474;-76
2022/03/29 11:00:22;;;;;;;17.03;14.33;;;;;;;15.48;45.78;155338.06;5061070;28;20502;-76
2022/03/29 11:03:22;;;;;;;18.40;15.20;;;;;;;15.53;44.59;155349.75;5047437;28;20926;-76
2022/03/29 11:06:10;;;;;;;19.10;14.23;;;;;;;15.48;44.06;155338.06;5031322;28;20447;-76
2022/03/29 11:08:48;;;;;;;17.87;14.20;;;;;;;15.59;43.30;155366.66;5047863;28;20488;-76
2022/03/29 11:11:39;;;;;;;21.20;15.13;;;;;;;15.62;43.83;155373.16;5031203;28;20444;-76
2022/03/29 11:14:35;;;;;;;17.40;13.90;;;;;;;15.73;42.69;155403.03;5015340;28;20480;-75
2022/03/29 11:17:41;;;;;;;18.07;13.57;;;;;;;15.78;41.88;155414.72;5026958;28;20443;-76
2022/03/29 11:20:32;;;;;;;19.33;13.20;;;;;;;15.69;41.49;155392.66;5057341;28;20450;-76
2022/03/29 11:23:10;;;;;;;18.10;13.33;;;;;;;15.59;41.91;155365.34;5036892;28;20450;-76
2022/03/29 11:25:46;;;;;;;19.70;14.53;;;;;;;15.60;42.04;155369.22;5052478;28;20845;-76
2022/03/29 11:28:21;;;;;;;21.30;14.33;;;;;;;15.69;41.17;155392.66;5052093;28;20993;-76
2022/03/29 11:30:57;;;;;;;19.27;15.30;;;;;;;15.64;42.15;155379.66;5053037;28;20450;-76
2022/03/29 11:33:35;;;;;;;18.10;13.47;;;;;;;15.62;41.67;155374.41;5053943;28;20541;-76
2022/03/29 11:36:11;;;;;;;17.97;13.37;;;;;;;15.75;41.60;155408.22;5050900;28;20949;-76
2022/03/29 11:38:48;;;;;;;21.37;13.43;;;;;;;15.84;41.77;155431.63;5051585;28;20439;-76
2022/03/29 11:41:25;;;;;;;17.73;13.93;;;;;;;16.04;41.46;155481.06;5050622;28;20469;-76
2022/03/29 11:44:02;;;;;;;19.13;13.33;;;;;;;16.15;40.90;155509.66;5053984;28;20475;-76
2022/03/29 11:46:49;;;;;;;18.20;13.60;;;;;;;16.27;41.31;155540.84;5041161;28;20454;-76
2022/03/29 11:49:27;;;;;;;17.60;12.30;;;;;;;16.18;40.77;155517.44;5023711;28;20471;-76
2022/03/29 11:52:17;;;;;;;19.17;13.47;;;;;;;16.24;41.07;155534.34;5038241;28;20490;-76
2022/03/29 11:54:54;;;;;;;15.80;13.20;;;;;;;16.32;40.89;155553.84;5041178;28;20446;-76
2022/03/29 11:57:31;;;;;;;22.67;13.93;;;;;;;16.34;40.81;155559.06;5048732;28;20557;-77
2022/03/29 12:00:23;;;;;;;16.53;14.10;;;;;;;16.53;40.71;155608.53;5032380;28;20712;-76
2022/03/29 12:02:58;;;;;;;17.97;14.27;;;;;;;16.43;40.39;155583.78;5038447;28;20444;-76
2022/03/29 12:05:33;;;;;;;20.93;14.93;;;;;;;16.40;41.33;155574.66;5054096;28;20781;-76
2022/03/29 12:08:09;;;;;;;18.47;13.83;;;;;;;16.46;41.28;155590.28;5049017;28;20442;-76